Weather at Mirandela Airfield

Public forecast

Using degrees Celsius for public forecast. Weather courtesy of forecast.io.

Closest aviation weather report (METAR) to Mirandela Airfield

Closest report is Francisco de Sá Carneiro Airport, 66.9 nm (123.9 km) W. Retrieved 2021/01/27 21:30 UTC (20 minutes ago):

LPPR 272130Z 00000KT 8000 BKN003 13/13 Q1027

Closest aviation forecast (TAF) to Mirandela Airfield

Closest forecast is Francisco de Sá Carneiro Airport, 66.9 nm (123.9 km) W. Retrieved 2021/01/27 18:18 UTC (4 hours ago):

TAF TAF LPPR 271700Z 2718/2818 18005KT 9999 SCT006 BKN012 BECMG 2718/2721 5000 BR SCT004 BKN008 TEMPO 2721/2809 2000 BR BKN002 PROB40 TEMPO 2800/2809 0200 FG VV001 BECMG 2809/2812 21008KT 9999 NSW SCT006 BKN012 PROB30 TEMPO 2812/2818 5000 -RA BR SCT004 BKN008